sensor_id;sensor_type;location;lat;lon;timestamp;P1;durP1;ratioP1;P2;durP2;ratioP2
5052;SDS011;2545;50.892;5.740;2023-03-01T00:01:02;11.90;;;7.93;;
5052;SDS011;2545;50.892;5.740;2023-03-01T00:03:29;12.33;;;7.83;;
5052;SDS011;2545;50.892;5.740;2023-03-01T00:05:54;10.50;;;7.43;;
5052;SDS011;2545;50.892;5.740;2023-03-01T00:08:19;10.70;;;7.17;;
5052;SDS011;2545;50.892;5.740;2023-03-01T00:10:45;10.90;;;6.80;;
5052;SDS011;2545;50.892;5.740;2023-03-01T00:13:10;11.87;;;6.93;;
5052;SDS011;2545;50.892;5.740;2023-03-01T00:15:38;13.80;;;7.40;;
5052;SDS011;2545;50.892;5.740;2023-03-01T00:18:04;10.97;;;7.40;;
5052;SDS011;2545;50.892;5.740;2023-03-01T00:20:30;16.57;;;7.37;;
5052;SDS011;2545;50.892;5.740;2023-03-01T00:22:55;13.40;;;6.50;;
5052;SDS011;2545;50.892;5.740;2023-03-01T00:25:20;15.00;;;7.40;;
5052;SDS011;2545;50.892;5.740;2023-03-01T00:27:46;12.33;;;7.23;;
5052;SDS011;2545;50.892;5.740;2023-03-01T00:30:13;13.00;;;7.40;;
5052;SDS011;2545;50.892;5.740;2023-03-01T00:32:39;12.27;;;7.27;;
5052;SDS011;2545;50.892;5.740;2023-03-01T00:35:05;9.87;;;7.50;;
5052;SDS011;2545;50.892;5.740;2023-03-01T00:37:30;10.93;;;7.30;;
5052;SDS011;2545;50.892;5.740;2023-03-01T00:39:56;15.17;;;7.90;;
5052;SDS011;2545;50.892;5.740;2023-03-01T00:42:21;13.60;;;8.37;;
5052;SDS011;2545;50.892;5.740;2023-03-01T00:44:47;12.53;;;8.10;;
5052;SDS011;2545;50.892;5.740;2023-03-01T00:47:12;16.50;;;7.70;;
5052;SDS011;2545;50.892;5.740;2023-03-01T00:49:38;21.00;;;7.80;;
5052;SDS011;2545;50.892;5.740;2023-03-01T00:52:04;11.70;;;7.40;;
5052;SDS011;2545;50.892;5.740;2023-03-01T00:54:30;12.17;;;6.97;;
5052;SDS011;2545;50.892;5.740;2023-03-01T00:56:55;10.60;;;7.43;;
5052;SDS011;2545;50.892;5.740;2023-03-01T00:59:20;11.40;;;7.60;;
5052;SDS011;2545;50.892;5.740;2023-03-01T01:01:45;12.43;;;6.97;;
5052;SDS011;2545;50.892;5.740;2023-03-01T01:04:12;13.33;;;7.73;;
5052;SDS011;2545;50.892;5.740;2023-03-01T01:06:42;11.53;;;6.93;;
5052;SDS011;2545;50.892;5.740;2023-03-01T01:09:12;9.23;;;7.17;;
5052;SDS011;2545;50.892;5.740;2023-03-01T01:11:42;12.20;;;7.57;;
5052;SDS011;2545;50.892;5.740;2023-03-01T01:14:09;12.43;;;7.93;;
5052;SDS011;2545;50.892;5.740;2023-03-01T01:16:35;11.93;;;7.53;;
5052;SDS011;2545;50.892;5.740;2023-03-01T01:19:00;11.23;;;7.37;;
5052;SDS011;2545;50.892;5.740;2023-03-01T01:21:26;13.07;;;6.87;;
5052;SDS011;2545;50.892;5.740;2023-03-01T01:23:52;15.00;;;7.87;;
5052;SDS011;2545;50.892;5.740;2023-03-01T01:26:19;10.73;;;7.37;;
5052;SDS011;2545;50.892;5.740;2023-03-01T01:28:55;12.70;;;8.37;;
5052;SDS011;2545;50.892;5.740;2023-03-01T01:31:21;19.60;;;8.33;;
5052;SDS011;2545;50.892;5.740;2023-03-01T01:33:50;14.03;;;8.03;;
5052;SDS011;2545;50.892;5.740;2023-03-01T01:36:16;13.50;;;7.67;;
5052;SDS011;2545;50.892;5.740;2023-03-01T01:38:42;17.37;;;8.83;;
5052;SDS011;2545;50.892;5.740;2023-03-01T01:41:08;13.60;;;7.30;;
5052;SDS011;2545;50.892;5.740;2023-03-01T01:43:40;14.50;;;8.07;;
5052;SDS011;2545;50.892;5.740;2023-03-01T01:48:39;16.73;;;9.53;;
5052;SDS011;2545;50.892;5.740;2023-03-01T01:51:13;15.90;;;8.00;;
5052;SDS011;2545;50.892;5.740;2023-03-01T01:53:40;15.20;;;7.83;;
5052;SDS011;2545;50.892;5.740;2023-03-01T01:56:08;11.30;;;8.00;;
5052;SDS011;2545;50.892;5.740;2023-03-01T01:58:36;10.63;;;8.10;;
5052;SDS011;2545;50.892;5.740;2023-03-01T02:01:02;13.87;;;8.10;;
5052;SDS011;2545;50.892;5.740;2023-03-01T02:03:32;15.97;;;9.00;;
5052;SDS011;2545;50.892;5.740;2023-03-01T02:06:19;15.67;;;8.40;;
5052;SDS011;2545;50.892;5.740;2023-03-01T02:08:53;13.80;;;8.83;;
5052;SDS011;2545;50.892;5.740;2023-03-01T02:11:22;16.90;;;9.07;;
5052;SDS011;2545;50.892;5.740;2023-03-01T02:13:48;14.80;;;8.70;;
5052;SDS011;2545;50.892;5.740;2023-03-01T02:16:15;15.93;;;9.03;;
5052;SDS011;2545;50.892;5.740;2023-03-01T02:18:41;14.47;;;8.10;;
5052;SDS011;2545;50.892;5.740;2023-03-01T02:21:11;15.60;;;8.50;;
5052;SDS011;2545;50.892;5.740;2023-03-01T02:23:46;22.17;;;9.27;;
5052;SDS011;2545;50.892;5.740;2023-03-01T02:26:26;12.50;;;8.43;;
5052;SDS011;2545;50.892;5.740;2023-03-01T02:29:03;11.27;;;7.93;;
5052;SDS011;2545;50.892;5.740;2023-03-01T02:31:30;27.13;;;8.50;;
5052;SDS011;2545;50.892;5.740;2023-03-01T02:34:09;15.83;;;9.40;;
5052;SDS011;2545;50.892;5.740;2023-03-01T02:36:39;14.73;;;8.13;;
5052;SDS011;2545;50.892;5.740;2023-03-01T02:39:07;13.97;;;8.43;;
5052;SDS011;2545;50.892;5.740;2023-03-01T02:41:39;14.33;;;8.63;;
5052;SDS011;2545;50.892;5.740;2023-03-01T02:44:07;16.63;;;8.93;;
5052;SDS011;2545;50.892;5.740;2023-03-01T02:46:33;16.23;;;9.40;;
5052;SDS011;2545;50.892;5.740;2023-03-01T02:48:59;11.60;;;7.97;;
5052;SDS011;2545;50.892;5.740;2023-03-01T02:56:43;12.73;;;8.60;;
5052;SDS011;2545;50.892;5.740;2023-03-01T02:59:13;12.70;;;8.60;;
5052;SDS011;2545;50.892;5.740;2023-03-01T03:01:38;15.60;;;9.10;;
5052;SDS011;2545;50.892;5.740;2023-03-01T03:04:11;12.30;;;8.57;;
5052;SDS011;2545;50.892;5.740;2023-03-01T03:06:41;17.20;;;9.20;;
5052;SDS011;2545;50.892;5.740;2023-03-01T03:09:08;15.30;;;9.13;;
5052;SDS011;2545;50.892;5.740;2023-03-01T03:11:33;13.33;;;8.60;;
5052;SDS011;2545;50.892;5.740;2023-03-01T03:13:58;13.87;;;8.87;;
5052;SDS011;2545;50.892;5.740;2023-03-01T03:16:23;14.00;;;8.90;;
5052;SDS011;2545;50.892;5.740;2023-03-01T03:18:49;13.70;;;8.73;;
5052;SDS011;2545;50.892;5.740;2023-03-01T03:21:15;15.90;;;9.07;;
5052;SDS011;2545;50.892;5.740;2023-03-01T03:23:41;19.00;;;9.70;;
5052;SDS011;2545;50.892;5.740;2023-03-01T03:26:07;16.93;;;9.37;;
5052;SDS011;2545;50.892;5.740;2023-03-01T03:28:32;14.27;;;8.93;;
5052;SDS011;2545;50.892;5.740;2023-03-01T03:30:59;13.27;;;9.30;;
5052;SDS011;2545;50.892;5.740;2023-03-01T03:33:29;13.47;;;9.47;;
5052;SDS011;2545;50.892;5.740;2023-03-01T03:35:57;16.67;;;9.43;;
5052;SDS011;2545;50.892;5.740;2023-03-01T03:38:23;15.00;;;8.70;;
5052;SDS011;2545;50.892;5.740;2023-03-01T03:40:50;21.13;;;10.57;;
5052;SDS011;2545;50.892;5.740;2023-03-01T03:43:21;17.97;;;9.00;;
5052;SDS011;2545;50.892;5.740;2023-03-01T03:45:48;20.13;;;9.63;;
5052;SDS011;2545;50.892;5.740;2023-03-01T03:48:15;20.50;;;10.17;;
5052;SDS011;2545;50.892;5.740;2023-03-01T03:50:41;15.10;;;9.60;;
5052;SDS011;2545;50.892;5.740;2023-03-01T03:53:08;20.87;;;9.77;;
5052;SDS011;2545;50.892;5.740;2023-03-01T03:55:36;14.77;;;9.47;;
5052;SDS011;2545;50.892;5.740;2023-03-01T03:58:04;21.80;;;9.00;;
5052;SDS011;2545;50.892;5.740;2023-03-01T04:00:35;17.80;;;10.13;;
5052;SDS011;2545;50.892;5.740;2023-03-01T04:03:02;15.50;;;9.40;;
5052;SDS011;2545;50.892;5.740;2023-03-01T04:05:28;24.03;;;10.90;;
5052;SDS011;2545;50.892;5.740;2023-03-01T04:07:54;17.20;;;10.13;;
5052;SDS011;2545;50.892;5.740;2023-03-01T04:10:26;15.23;;;9.27;;
5052;SDS011;2545;50.892;5.740;2023-03-01T04:12:52;18.80;;;11.00;;
5052;SDS011;2545;50.892;5.740;2023-03-01T04:15:18;16.83;;;9.90;;
5052;SDS011;2545;50.892;5.740;2023-03-01T04:17:45;20.50;;;10.90;;
5052;SDS011;2545;50.892;5.740;2023-03-01T04:20:12;17.53;;;10.27;;
5052;SDS011;2545;50.892;5.740;2023-03-01T04:22:45;21.00;;;11.07;;
5052;SDS011;2545;50.892;5.740;2023-03-01T04:25:12;14.47;;;10.50;;
5052;SDS011;2545;50.892;5.740;2023-03-01T04:27:39;16.33;;;10.10;;
5052;SDS011;2545;50.892;5.740;2023-03-01T04:30:05;18.47;;;10.83;;
5052;SDS011;2545;50.892;5.740;2023-03-01T04:32:32;13.83;;;9.77;;
5052;SDS011;2545;50.892;5.740;2023-03-01T04:34:59;16.73;;;11.37;;
5052;SDS011;2545;50.892;5.740;2023-03-01T04:37:24;22.33;;;12.13;;
5052;SDS011;2545;50.892;5.740;2023-03-01T04:39:50;18.43;;;11.23;;
5052;SDS011;2545;50.892;5.740;2023-03-01T04:42:15;14.00;;;10.07;;
5052;SDS011;2545;50.892;5.740;2023-03-01T04:44:41;17.50;;;11.40;;
5052;SDS011;2545;50.892;5.740;2023-03-01T04:47:07;22.60;;;12.47;;
5052;SDS011;2545;50.892;5.740;2023-03-01T04:49:32;24.20;;;11.40;;
5052;SDS011;2545;50.892;5.740;2023-03-01T04:51:58;18.07;;;11.27;;
5052;SDS011;2545;50.892;5.740;2023-03-01T04:54:27;17.00;;;10.70;;
5052;SDS011;2545;50.892;5.740;2023-03-01T04:56:53;22.03;;;11.80;;
5052;SDS011;2545;50.892;5.740;2023-03-01T04:59:18;16.07;;;10.97;;
5052;SDS011;2545;50.892;5.740;2023-03-01T05:01:47;18.53;;;10.77;;
5052;SDS011;2545;50.892;5.740;2023-03-01T05:04:16;15.93;;;10.40;;
5052;SDS011;2545;50.892;5.740;2023-03-01T05:06:41;21.93;;;11.33;;
5052;SDS011;2545;50.892;5.740;2023-03-01T05:09:07;23.47;;;11.17;;
5052;SDS011;2545;50.892;5.740;2023-03-01T05:11:32;17.53;;;11.30;;
5052;SDS011;2545;50.892;5.740;2023-03-01T05:14:01;16.57;;;10.47;;
5052;SDS011;2545;50.892;5.740;2023-03-01T05:16:27;17.77;;;10.80;;
5052;SDS011;2545;50.892;5.740;2023-03-01T05:18:52;20.73;;;10.60;;
5052;SDS011;2545;50.892;5.740;2023-03-01T05:21:20;18.27;;;11.03;;
5052;SDS011;2545;50.892;5.740;2023-03-01T05:23:45;17.27;;;11.90;;
5052;SDS011;2545;50.892;5.740;2023-03-01T05:26:11;16.37;;;10.00;;
5052;SDS011;2545;50.892;5.740;2023-03-01T05:28:37;19.33;;;12.67;;
5052;SDS011;2545;50.892;5.740;2023-03-01T05:31:03;17.57;;;11.23;;
5052;SDS011;2545;50.892;5.740;2023-03-01T05:33:34;20.30;;;10.90;;
5052;SDS011;2545;50.892;5.740;2023-03-01T05:36:01;16.67;;;11.10;;
5052;SDS011;2545;50.892;5.740;2023-03-01T05:38:26;15.53;;;10.57;;
5052;SDS011;2545;50.892;5.740;2023-03-01T05:40:51;19.47;;;11.07;;
5052;SDS011;2545;50.892;5.740;2023-03-01T05:43:17;18.73;;;11.03;;
5052;SDS011;2545;50.892;5.740;2023-03-01T05:45:43;13.50;;;10.00;;
5052;SDS011;2545;50.892;5.740;2023-03-01T05:48:09;19.23;;;11.70;;
5052;SDS011;2545;50.892;5.740;2023-03-01T05:50:37;17.50;;;10.40;;
5052;SDS011;2545;50.892;5.740;2023-03-01T05:55:33;13.80;;;10.83;;
5052;SDS011;2545;50.892;5.740;2023-03-01T05:57:59;20.17;;;11.00;;
5052;SDS011;2545;50.892;5.740;2023-03-01T06:00:26;18.67;;;10.70;;
5052;SDS011;2545;50.892;5.740;2023-03-01T06:02:53;19.23;;;11.40;;
5052;SDS011;2545;50.892;5.740;2023-03-01T06:05:19;17.73;;;11.03;;
5052;SDS011;2545;50.892;5.740;2023-03-01T06:07:44;20.20;;;12.00;;
5052;SDS011;2545;50.892;5.740;2023-03-01T06:10:10;18.27;;;12.23;;
5052;SDS011;2545;50.892;5.740;2023-03-01T06:12:37;17.83;;;11.30;;
5052;SDS011;2545;50.892;5.740;2023-03-01T06:15:06;17.53;;;10.00;;
5052;SDS011;2545;50.892;5.740;2023-03-01T06:17:35;17.63;;;12.63;;
5052;SDS011;2545;50.892;5.740;2023-03-01T06:20:03;23.07;;;11.47;;
5052;SDS011;2545;50.892;5.740;2023-03-01T06:22:30;22.10;;;12.20;;
5052;SDS011;2545;50.892;5.740;2023-03-01T06:24:55;30.40;;;13.13;;
5052;SDS011;2545;50.892;5.740;2023-03-01T06:27:20;21.00;;;11.27;;
5052;SDS011;2545;50.892;5.740;2023-03-01T06:29:46;22.73;;;12.50;;
5052;SDS011;2545;50.892;5.740;2023-03-01T06:32:11;19.00;;;11.93;;
5052;SDS011;2545;50.892;5.740;2023-03-01T06:34:36;19.77;;;12.03;;
5052;SDS011;2545;50.892;5.740;2023-03-01T06:37:02;18.67;;;12.07;;
5052;SDS011;2545;50.892;5.740;2023-03-01T06:39:30;20.00;;;12.43;;
5052;SDS011;2545;50.892;5.740;2023-03-01T06:41:56;18.30;;;11.80;;
5052;SDS011;2545;50.892;5.740;2023-03-01T06:44:21;19.80;;;11.83;;
5052;SDS011;2545;50.892;5.740;2023-03-01T06:46:46;26.00;;;13.13;;
5052;SDS011;2545;50.892;5.740;2023-03-01T06:49:12;37.70;;;21.17;;
5052;SDS011;2545;50.892;5.740;2023-03-01T06:51:37;30.33;;;19.70;;
5052;SDS011;2545;50.892;5.740;2023-03-01T06:54:04;18.27;;;12.10;;
5052;SDS011;2545;50.892;5.740;2023-03-01T06:56:30;17.93;;;11.53;;
5052;SDS011;2545;50.892;5.740;2023-03-01T06:58:56;20.47;;;11.30;;
5052;SDS011;2545;50.892;5.740;2023-03-01T07:01:21;20.27;;;13.33;;
5052;SDS011;2545;50.892;5.740;2023-03-01T07:03:46;25.37;;;14.57;;
5052;SDS011;2545;50.892;5.740;2023-03-01T07:06:12;19.87;;;12.73;;
5052;SDS011;2545;50.892;5.740;2023-03-01T07:08:37;22.80;;;12.83;;
5052;SDS011;2545;50.892;5.740;2023-03-01T07:11:02;21.43;;;13.23;;
5052;SDS011;2545;50.892;5.740;2023-03-01T07:13:28;20.20;;;11.87;;
5052;SDS011;2545;50.892;5.740;2023-03-01T07:15:54;19.50;;;12.27;;
5052;SDS011;2545;50.892;5.740;2023-03-01T07:18:19;19.70;;;13.30;;
5052;SDS011;2545;50.892;5.740;2023-03-01T07:20:45;22.07;;;12.43;;
5052;SDS011;2545;50.892;5.740;2023-03-01T07:23:10;19.97;;;11.77;;
5052;SDS011;2545;50.892;5.740;2023-03-01T07:25:36;22.67;;;11.60;;
5052;SDS011;2545;50.892;5.740;2023-03-01T07:28:01;19.47;;;11.60;;
5052;SDS011;2545;50.892;5.740;2023-03-01T07:30:27;21.33;;;12.63;;
5052;SDS011;2545;50.892;5.740;2023-03-01T07:32:53;19.80;;;11.57;;
5052;SDS011;2545;50.892;5.740;2023-03-01T07:35:20;22.83;;;13.20;;
5052;SDS011;2545;50.892;5.740;2023-03-01T07:37:46;20.60;;;11.70;;
5052;SDS011;2545;50.892;5.740;2023-03-01T07:40:12;20.10;;;11.57;;
5052;SDS011;2545;50.892;5.740;2023-03-01T07:42:37;18.50;;;10.63;;
5052;SDS011;2545;50.892;5.740;2023-03-01T07:45:04;18.63;;;12.83;;
5052;SDS011;2545;50.892;5.740;2023-03-01T07:47:30;18.90;;;12.43;;
5052;SDS011;2545;50.892;5.740;2023-03-01T07:49:55;18.80;;;12.43;;
5052;SDS011;2545;50.892;5.740;2023-03-01T07:52:21;20.70;;;12.20;;
5052;SDS011;2545;50.892;5.740;2023-03-01T07:54:46;22.20;;;12.50;;
5052;SDS011;2545;50.892;5.740;2023-03-01T07:57:11;25.30;;;13.23;;
5052;SDS011;2545;50.892;5.740;2023-03-01T07:59:37;20.43;;;12.77;;
5052;SDS011;2545;50.892;5.740;2023-03-01T08:02:02;21.80;;;11.60;;
5052;SDS011;2545;50.892;5.740;2023-03-01T08:04:27;20.50;;;11.70;;
5052;SDS011;2545;50.892;5.740;2023-03-01T08:06:54;20.53;;;12.00;;
5052;SDS011;2545;50.892;5.740;2023-03-01T08:09:19;20.60;;;13.13;;
5052;SDS011;2545;50.892;5.740;2023-03-01T08:11:45;21.70;;;11.27;;
5052;SDS011;2545;50.892;5.740;2023-03-01T08:14:11;15.43;;;10.80;;
5052;SDS011;2545;50.892;5.740;2023-03-01T08:16:36;22.83;;;12.30;;
5052;SDS011;2545;50.892;5.740;2023-03-01T08:19:06;17.43;;;10.50;;
5052;SDS011;2545;50.892;5.740;2023-03-01T08:21:35;17.30;;;11.73;;
5052;SDS011;2545;50.892;5.740;2023-03-01T08:24:01;18.10;;;10.83;;
5052;SDS011;2545;50.892;5.740;2023-03-01T08:26:27;19.90;;;11.27;;
5052;SDS011;2545;50.892;5.740;2023-03-01T08:28:53;17.37;;;11.93;;
5052;SDS011;2545;50.892;5.740;2023-03-01T08:33:49;17.93;;;10.80;;
5052;SDS011;2545;50.892;5.740;2023-03-01T08:36:20;25.07;;;12.50;;
5052;SDS011;2545;50.892;5.740;2023-03-01T08:38:46;21.17;;;11.93;;
5052;SDS011;2545;50.892;5.740;2023-03-01T08:41:12;18.90;;;11.27;;
5052;SDS011;2545;50.892;5.740;2023-03-01T08:43:37;18.60;;;12.07;;
5052;SDS011;2545;50.892;5.740;2023-03-01T08:46:03;22.40;;;13.20;;
5052;SDS011;2545;50.892;5.740;2023-03-01T08:48:28;18.27;;;11.10;;
5052;SDS011;2545;50.892;5.740;2023-03-01T08:50:54;19.63;;;11.10;;
5052;SDS011;2545;50.892;5.740;2023-03-01T08:53:19;16.07;;;11.27;;
5052;SDS011;2545;50.892;5.740;2023-03-01T08:55:45;18.17;;;10.40;;
5052;SDS011;2545;50.892;5.740;2023-03-01T08:58:10;17.70;;;11.30;;
5052;SDS011;2545;50.892;5.740;2023-03-01T09:00:35;19.00;;;12.10;;
5052;SDS011;2545;50.892;5.740;2023-03-01T09:03:01;17.00;;;11.73;;
5052;SDS011;2545;50.892;5.740;2023-03-01T09:05:27;16.97;;;11.43;;
5052;SDS011;2545;50.892;5.740;2023-03-01T09:07:52;24.40;;;12.73;;
5052;SDS011;2545;50.892;5.740;2023-03-01T09:10:17;22.40;;;12.07;;
5052;SDS011;2545;50.892;5.740;2023-03-01T09:12:43;18.10;;;11.03;;
5052;SDS011;2545;50.892;5.740;2023-03-01T09:15:08;17.17;;;11.63;;
5052;SDS011;2545;50.892;5.740;2023-03-01T09:17:34;21.00;;;11.63;;
5052;SDS011;2545;50.892;5.740;2023-03-01T09:20:00;22.97;;;12.60;;
5052;SDS011;2545;50.892;5.740;2023-03-01T09:22:25;18.60;;;11.27;;
5052;SDS011;2545;50.892;5.740;2023-03-01T09:24:50;18.30;;;11.50;;
5052;SDS011;2545;50.892;5.740;2023-03-01T09:27:16;21.20;;;11.03;;
5052;SDS011;2545;50.892;5.740;2023-03-01T09:29:43;19.80;;;12.20;;
5052;SDS011;2545;50.892;5.740;2023-03-01T09:32:09;16.80;;;11.60;;
5052;SDS011;2545;50.892;5.740;2023-03-01T09:34:34;17.90;;;11.47;;
5052;SDS011;2545;50.892;5.740;2023-03-01T09:37:20;20.20;;;11.10;;
5052;SDS011;2545;50.892;5.740;2023-03-01T09:39:45;15.57;;;10.47;;
5052;SDS011;2545;50.892;5.740;2023-03-01T09:42:10;20.37;;;11.30;;
5052;SDS011;2545;50.892;5.740;2023-03-01T09:44:43;19.93;;;11.63;;
5052;SDS011;2545;50.892;5.740;2023-03-01T09:47:18;19.77;;;11.70;;
5052;SDS011;2545;50.892;5.740;2023-03-01T09:50:13;17.13;;;10.70;;
5052;SDS011;2545;50.892;5.740;2023-03-01T09:53:31;21.30;;;11.70;;
5052;SDS011;2545;50.892;5.740;2023-03-01T09:58:28;20.10;;;12.10;;
5052;SDS011;2545;50.892;5.740;2023-03-01T10:03:42;22.00;;;11.87;;
5052;SDS011;2545;50.892;5.740;2023-03-01T10:06:14;17.37;;;11.40;;
5052;SDS011;2545;50.892;5.740;2023-03-01T10:11:35;20.23;;;11.53;;
5052;SDS011;2545;50.892;5.740;2023-03-01T10:14:05;18.90;;;11.00;;
5052;SDS011;2545;50.892;5.740;2023-03-01T10:16:51;19.87;;;12.00;;
5052;SDS011;2545;50.892;5.740;2023-03-01T10:19:31;17.20;;;11.13;;
5052;SDS011;2545;50.892;5.740;2023-03-01T10:22:11;25.33;;;12.27;;
5052;SDS011;2545;50.892;5.740;2023-03-01T10:24:40;20.50;;;11.30;;
5052;SDS011;2545;50.892;5.740;2023-03-01T10:27:09;19.33;;;11.07;;
5052;SDS011;2545;50.892;5.740;2023-03-01T10:32:31;19.27;;;12.27;;
5052;SDS011;2545;50.892;5.740;2023-03-01T10:34:57;17.30;;;11.33;;
5052;SDS011;2545;50.892;5.740;2023-03-01T10:37:23;41.73;;;12.37;;
5052;SDS011;2545;50.892;5.740;2023-03-01T10:39:55;20.03;;;12.33;;
5052;SDS011;2545;50.892;5.740;2023-03-01T10:42:35;15.80;;;12.07;;
5052;SDS011;2545;50.892;5.740;2023-03-01T10:46:04;22.50;;;12.73;;
5052;SDS011;2545;50.892;5.740;2023-03-01T10:48:19;18.67;;;12.03;;
5052;SDS011;2545;50.892;5.740;2023-03-01T10:50:49;17.60;;;11.87;;
5052;SDS011;2545;50.892;5.740;2023-03-01T10:56:01;20.20;;;11.97;;
5052;SDS011;2545;50.892;5.740;2023-03-01T10:58:32;15.03;;;11.77;;
5052;SDS011;2545;50.892;5.740;2023-03-01T11:01:00;23.43;;;12.97;;
5052;SDS011;2545;50.892;5.740;2023-03-01T11:03:35;22.03;;;13.90;;
5052;SDS011;2545;50.892;5.740;2023-03-01T11:13:37;16.97;;;11.13;;
5052;SDS011;2545;50.892;5.740;2023-03-01T11:16:13;18.10;;;12.83;;
5052;SDS011;2545;50.892;5.740;2023-03-01T11:18:39;16.53;;;12.17;;
5052;SDS011;2545;50.892;5.740;2023-03-01T11:21:04;26.10;;;13.43;;
5052;SDS011;2545;50.892;5.740;2023-03-01T11:23:33;34.67;;;13.07;;
5052;SDS011;2545;50.892;5.740;2023-03-01T11:26:00;20.07;;;12.47;;
5052;SDS011;2545;50.892;5.740;2023-03-01T11:28:30;28.50;;;13.50;;
5052;SDS011;2545;50.892;5.740;2023-03-01T11:30:57;22.33;;;13.83;;
5052;SDS011;2545;50.892;5.740;2023-03-01T11:33:41;17.40;;;12.53;;
5052;SDS011;2545;50.892;5.740;2023-03-01T11:38:55;18.27;;;12.40;;
5052;SDS011;2545;50.892;5.740;2023-03-01T11:41:24;18.77;;;12.80;;
5052;SDS011;2545;50.892;5.740;2023-03-01T11:43:57;17.20;;;13.00;;
5052;SDS011;2545;50.892;5.740;2023-03-01T11:54:39;15.40;;;10.87;;
5052;SDS011;2545;50.892;5.740;2023-03-01T12:00:27;15.50;;;11.00;;
5052;SDS011;2545;50.892;5.740;2023-03-01T12:06:28;22.53;;;12.77;;
5052;SDS011;2545;50.892;5.740;2023-03-01T12:11:56;20.27;;;14.33;;
5052;SDS011;2545;50.892;5.740;2023-03-01T12:31:30;24.27;;;12.60;;
5052;SDS011;2545;50.892;5.740;2023-03-01T12:36:57;16.17;;;12.37;;
5052;SDS011;2545;50.892;5.740;2023-03-01T12:40:40;21.60;;;13.30;;
5052;SDS011;2545;50.892;5.740;2023-03-01T12:43:41;31.47;;;14.20;;
5052;SDS011;2545;50.892;5.740;2023-03-01T12:48:36;20.67;;;13.10;;
5052;SDS011;2545;50.892;5.740;2023-03-01T12:51:12;15.70;;;11.53;;
5052;SDS011;2545;50.892;5.740;2023-03-01T12:53:44;16.83;;;11.57;;
5052;SDS011;2545;50.892;5.740;2023-03-01T12:56:14;16.30;;;11.07;;
5052;SDS011;2545;50.892;5.740;2023-03-01T12:58:51;19.97;;;11.40;;
5052;SDS011;2545;50.892;5.740;2023-03-01T13:07:16;22.90;;;13.07;;
5052;SDS011;2545;50.892;5.740;2023-03-01T13:13:10;20.80;;;12.27;;
5052;SDS011;2545;50.892;5.740;2023-03-01T13:17:46;18.77;;;12.50;;
5052;SDS011;2545;50.892;5.740;2023-03-01T13:20:13;17.87;;;11.60;;
5052;SDS011;2545;50.892;5.740;2023-03-01T13:22:45;15.80;;;11.13;;
5052;SDS011;2545;50.892;5.740;2023-03-01T13:25:16;24.63;;;13.20;;
5052;SDS011;2545;50.892;5.740;2023-03-01T13:27:44;21.80;;;13.20;;
5052;SDS011;2545;50.892;5.740;2023-03-01T13:36:05;22.93;;;10.40;;
5052;SDS011;2545;50.892;5.740;2023-03-01T13:47:07;15.30;;;10.20;;
5052;SDS011;2545;50.892;5.740;2023-03-01T13:49:44;18.27;;;11.40;;
5052;SDS011;2545;50.892;5.740;2023-03-01T13:55:03;16.07;;;10.37;;
5052;SDS011;2545;50.892;5.740;2023-03-01T13:57:34;20.43;;;11.30;;
5052;SDS011;2545;50.892;5.740;2023-03-01T14:00:04;25.53;;;10.83;;
5052;SDS011;2545;50.892;5.740;2023-03-01T14:02:30;18.70;;;11.50;;
5052;SDS011;2545;50.892;5.740;2023-03-01T14:04:56;17.27;;;10.67;;
5052;SDS011;2545;50.892;5.740;2023-03-01T14:07:23;18.03;;;10.30;;
5052;SDS011;2545;50.892;5.740;2023-03-01T14:10:03;16.50;;;9.80;;
5052;SDS011;2545;50.892;5.740;2023-03-01T14:15:19;18.20;;;10.50;;
5052;SDS011;2545;50.892;5.740;2023-03-01T14:17:53;22.30;;;12.57;;
5052;SDS011;2545;50.892;5.740;2023-03-01T14:20:25;17.33;;;10.57;;
5052;SDS011;2545;50.892;5.740;2023-03-01T14:22:54;18.03;;;11.10;;
5052;SDS011;2545;50.892;5.740;2023-03-01T14:25:29;22.53;;;12.00;;
5052;SDS011;2545;50.892;5.740;2023-03-01T14:28:01;17.00;;;10.63;;
5052;SDS011;2545;50.892;5.740;2023-03-01T14:30:27;17.60;;;11.20;;
5052;SDS011;2545;50.892;5.740;2023-03-01T14:33:01;22.30;;;11.00;;
5052;SDS011;2545;50.892;5.740;2023-03-01T14:35:32;21.37;;;11.13;;
5052;SDS011;2545;50.892;5.740;2023-03-01T14:37:59;18.40;;;10.53;;
5052;SDS011;2545;50.892;5.740;2023-03-01T14:40:26;15.50;;;10.20;;
5052;SDS011;2545;50.892;5.740;2023-03-01T14:42:57;20.37;;;12.60;;
5052;SDS011;2545;50.892;5.740;2023-03-01T14:45:26;20.43;;;11.00;;
5052;SDS011;2545;50.892;5.740;2023-03-01T14:47:54;20.43;;;10.63;;
5052;SDS011;2545;50.892;5.740;2023-03-01T14:50:25;17.70;;;10.10;;
5052;SDS011;2545;50.892;5.740;2023-03-01T14:52:53;15.67;;;10.50;;
5052;SDS011;2545;50.892;5.740;2023-03-01T14:55:24;17.00;;;9.83;;
5052;SDS011;2545;50.892;5.740;2023-03-01T14:57:54;18.80;;;10.10;;
5052;SDS011;2545;50.892;5.740;2023-03-01T15:00:28;15.20;;;8.70;;
5052;SDS011;2545;50.892;5.740;2023-03-01T15:02:56;15.77;;;9.23;;
5052;SDS011;2545;50.892;5.740;2023-03-01T15:05:32;15.10;;;9.80;;
5052;SDS011;2545;50.892;5.740;2023-03-01T15:07:59;23.47;;;9.13;;
5052;SDS011;2545;50.892;5.740;2023-03-01T15:10:32;14.00;;;9.07;;
5052;SDS011;2545;50.892;5.740;2023-03-01T15:13:12;15.60;;;9.40;;
5052;SDS011;2545;50.892;5.740;2023-03-01T15:15:48;17.83;;;9.10;;
5052;SDS011;2545;50.892;5.740;2023-03-01T15:18:17;14.73;;;9.00;;
5052;SDS011;2545;50.892;5.740;2023-03-01T15:20:45;17.97;;;8.77;;
5052;SDS011;2545;50.892;5.740;2023-03-01T15:23:16;16.27;;;7.73;;
5052;SDS011;2545;50.892;5.740;2023-03-01T15:25:45;21.40;;;9.50;;
5052;SDS011;2545;50.892;5.740;2023-03-01T15:28:12;17.43;;;8.57;;
5052;SDS011;2545;50.892;5.740;2023-03-01T15:30:45;16.60;;;8.20;;
5052;SDS011;2545;50.892;5.740;2023-03-01T15:33:17;12.63;;;7.43;;
5052;SDS011;2545;50.892;5.740;2023-03-01T15:35:50;14.40;;;7.40;;
5052;SDS011;2545;50.892;5.740;2023-03-01T15:41:19;14.90;;;8.10;;
5052;SDS011;2545;50.892;5.740;2023-03-01T15:43:48;14.80;;;7.63;;
5052;SDS011;2545;50.892;5.740;2023-03-01T15:46:20;14.20;;;7.50;;
5052;SDS011;2545;50.892;5.740;2023-03-01T15:48:50;16.13;;;6.80;;
5052;SDS011;2545;50.892;5.740;2023-03-01T15:51:19;23.10;;;8.00;;
5052;SDS011;2545;50.892;5.740;2023-03-01T15:53:52;15.93;;;8.13;;
5052;SDS011;2545;50.892;5.740;2023-03-01T15:56:18;13.83;;;7.93;;
5052;SDS011;2545;50.892;5.740;2023-03-01T15:58:43;15.87;;;7.40;;
5052;SDS011;2545;50.892;5.740;2023-03-01T16:01:11;16.10;;;7.97;;
5052;SDS011;2545;50.892;5.740;2023-03-01T16:03:39;15.37;;;7.60;;
5052;SDS011;2545;50.892;5.740;2023-03-01T16:06:04;16.20;;;7.37;;
5052;SDS011;2545;50.892;5.740;2023-03-01T16:08:29;14.40;;;7.17;;
5052;SDS011;2545;50.892;5.740;2023-03-01T16:10:55;22.93;;;8.10;;
5052;SDS011;2545;50.892;5.740;2023-03-01T16:13:20;16.50;;;7.73;;
5052;SDS011;2545;50.892;5.740;2023-03-01T16:15:46;15.30;;;7.60;;
5052;SDS011;2545;50.892;5.740;2023-03-01T16:18:11;17.93;;;7.27;;
5052;SDS011;2545;50.892;5.740;2023-03-01T16:20:37;13.90;;;8.40;;
5052;SDS011;2545;50.892;5.740;2023-03-01T16:23:03;16.40;;;8.50;;
5052;SDS011;2545;50.892;5.740;2023-03-01T16:25:31;13.70;;;7.73;;
5052;SDS011;2545;50.892;5.740;2023-03-01T16:27:57;14.67;;;7.77;;
5052;SDS011;2545;50.892;5.740;2023-03-01T16:30:26;18.63;;;9.10;;
5052;SDS011;2545;50.892;5.740;2023-03-01T16:32:51;17.30;;;7.80;;
5052;SDS011;2545;50.892;5.740;2023-03-01T16:35:18;15.03;;;7.10;;
5052;SDS011;2545;50.892;5.740;2023-03-01T16:37:45;17.20;;;8.47;;
5052;SDS011;2545;50.892;5.740;2023-03-01T16:40:16;15.50;;;8.20;;
5052;SDS011;2545;50.892;5.740;2023-03-01T16:42:51;16.90;;;7.63;;
5052;SDS011;2545;50.892;5.740;2023-03-01T16:45:17;16.63;;;8.90;;
5052;SDS011;2545;50.892;5.740;2023-03-01T16:47:43;27.63;;;8.30;;
5052;SDS011;2545;50.892;5.740;2023-03-01T16:50:08;22.80;;;9.60;;
5052;SDS011;2545;50.892;5.740;2023-03-01T16:52:34;21.77;;;8.73;;